sensor_id;sensor_type;location;lat;lon;timestamp;P1;durP1;ratioP1;P2;durP2;ratioP2
16510;SDS011;8368;48.772;8.754;2024-02-21T00:00:09;8.93;;;3.67;;
16510;SDS011;8368;48.772;8.754;2024-02-21T00:02:36;4.70;;;3.00;;
16510;SDS011;8368;48.772;8.754;2024-02-21T00:05:02;6.10;;;2.80;;
16510;SDS011;8368;48.772;8.754;2024-02-21T00:07:27;5.87;;;3.30;;
16510;SDS011;8368;48.772;8.754;2024-02-21T00:09:53;10.73;;;3.90;;
16510;SDS011;8368;48.772;8.754;2024-02-21T00:12:19;6.50;;;3.37;;
16510;SDS011;8368;48.772;8.754;2024-02-21T00:14:44;5.50;;;3.00;;
16510;SDS011;8368;48.772;8.754;2024-02-21T00:17:10;6.87;;;2.83;;
16510;SDS011;8368;48.772;8.754;2024-02-21T00:19:35;9.70;;;3.37;;
16510;SDS011;8368;48.772;8.754;2024-02-21T00:22:01;12.77;;;3.17;;
16510;SDS011;8368;48.772;8.754;2024-02-21T00:24:26;4.97;;;2.87;;
16510;SDS011;8368;48.772;8.754;2024-02-21T00:26:53;7.30;;;3.30;;
16510;SDS011;8368;48.772;8.754;2024-02-21T00:29:19;4.83;;;3.27;;
16510;SDS011;8368;48.772;8.754;2024-02-21T00:31:44;11.43;;;3.40;;
16510;SDS011;8368;48.772;8.754;2024-02-21T00:34:10;5.77;;;3.67;;
16510;SDS011;8368;48.772;8.754;2024-02-21T00:36:37;4.17;;;2.70;;
16510;SDS011;8368;48.772;8.754;2024-02-21T00:39:03;4.30;;;2.93;;
16510;SDS011;8368;48.772;8.754;2024-02-21T00:41:29;6.20;;;2.83;;
16510;SDS011;8368;48.772;8.754;2024-02-21T00:43:54;6.37;;;2.63;;
16510;SDS011;8368;48.772;8.754;2024-02-21T00:46:20;6.80;;;2.80;;
16510;SDS011;8368;48.772;8.754;2024-02-21T00:48:45;4.43;;;3.00;;
16510;SDS011;8368;48.772;8.754;2024-02-21T00:51:11;8.97;;;2.97;;
16510;SDS011;8368;48.772;8.754;2024-02-21T00:53:36;8.87;;;3.43;;
16510;SDS011;8368;48.772;8.754;2024-02-21T00:56:04;7.37;;;3.30;;
16510;SDS011;8368;48.772;8.754;2024-02-21T00:58:30;4.73;;;2.73;;
16510;SDS011;8368;48.772;8.754;2024-02-21T01:00:56;6.00;;;2.93;;
16510;SDS011;8368;48.772;8.754;2024-02-21T01:03:21;7.27;;;2.83;;
16510;SDS011;8368;48.772;8.754;2024-02-21T01:05:47;8.70;;;2.90;;
16510;SDS011;8368;48.772;8.754;2024-02-21T01:08:12;5.67;;;3.17;;
16510;SDS011;8368;48.772;8.754;2024-02-21T01:10:37;9.13;;;2.63;;
16510;SDS011;8368;48.772;8.754;2024-02-21T01:13:03;7.37;;;3.20;;
16510;SDS011;8368;48.772;8.754;2024-02-21T01:15:28;6.57;;;3.30;;
16510;SDS011;8368;48.772;8.754;2024-02-21T01:17:54;7.43;;;3.20;;
16510;SDS011;8368;48.772;8.754;2024-02-21T01:20:20;5.30;;;2.87;;
16510;SDS011;8368;48.772;8.754;2024-02-21T01:22:46;9.70;;;3.10;;
16510;SDS011;8368;48.772;8.754;2024-02-21T01:25:12;6.83;;;2.70;;
16510;SDS011;8368;48.772;8.754;2024-02-21T01:27:37;7.63;;;3.00;;
16510;SDS011;8368;48.772;8.754;2024-02-21T01:30:03;4.43;;;3.40;;
16510;SDS011;8368;48.772;8.754;2024-02-21T01:32:30;5.00;;;3.07;;
16510;SDS011;8368;48.772;8.754;2024-02-21T01:34:56;5.47;;;3.00;;
16510;SDS011;8368;48.772;8.754;2024-02-21T01:37:21;6.53;;;2.90;;
16510;SDS011;8368;48.772;8.754;2024-02-21T01:39:47;9.83;;;3.43;;
16510;SDS011;8368;48.772;8.754;2024-02-21T01:42:14;6.80;;;3.33;;
16510;SDS011;8368;48.772;8.754;2024-02-21T01:44:40;9.03;;;3.73;;
16510;SDS011;8368;48.772;8.754;2024-02-21T01:47:06;4.93;;;3.20;;
16510;SDS011;8368;48.772;8.754;2024-02-21T01:49:32;6.30;;;3.10;;
16510;SDS011;8368;48.772;8.754;2024-02-21T01:51:58;9.73;;;3.10;;
16510;SDS011;8368;48.772;8.754;2024-02-21T01:54:25;7.67;;;3.00;;
16510;SDS011;8368;48.772;8.754;2024-02-21T01:56:53;5.63;;;3.10;;
16510;SDS011;8368;48.772;8.754;2024-02-21T01:59:19;4.17;;;3.10;;
16510;SDS011;8368;48.772;8.754;2024-02-21T02:01:46;6.70;;;3.30;;
16510;SDS011;8368;48.772;8.754;2024-02-21T02:04:12;5.67;;;2.90;;
16510;SDS011;8368;48.772;8.754;2024-02-21T02:06:38;6.90;;;3.07;;
16510;SDS011;8368;48.772;8.754;2024-02-21T02:09:04;7.13;;;3.17;;
16510;SDS011;8368;48.772;8.754;2024-02-21T02:11:31;4.67;;;3.27;;
16510;SDS011;8368;48.772;8.754;2024-02-21T02:13:57;6.90;;;2.80;;
16510;SDS011;8368;48.772;8.754;2024-02-21T02:16:22;5.87;;;2.53;;
16510;SDS011;8368;48.772;8.754;2024-02-21T02:18:48;9.23;;;3.10;;
16510;SDS011;8368;48.772;8.754;2024-02-21T02:21:20;10.93;;;3.20;;
16510;SDS011;8368;48.772;8.754;2024-02-21T02:23:55;4.97;;;2.67;;
16510;SDS011;8368;48.772;8.754;2024-02-21T02:26:21;5.07;;;2.90;;
16510;SDS011;8368;48.772;8.754;2024-02-21T02:28:46;5.30;;;2.90;;
16510;SDS011;8368;48.772;8.754;2024-02-21T02:31:12;5.57;;;2.77;;
16510;SDS011;8368;48.772;8.754;2024-02-21T02:33:37;5.77;;;2.80;;
16510;SDS011;8368;48.772;8.754;2024-02-21T02:36:03;7.20;;;3.23;;
16510;SDS011;8368;48.772;8.754;2024-02-21T02:38:29;8.27;;;3.07;;
16510;SDS011;8368;48.772;8.754;2024-02-21T02:40:54;6.03;;;2.60;;
16510;SDS011;8368;48.772;8.754;2024-02-21T02:43:20;4.60;;;2.77;;
16510;SDS011;8368;48.772;8.754;2024-02-21T02:45:45;4.00;;;3.00;;
16510;SDS011;8368;48.772;8.754;2024-02-21T02:48:11;7.53;;;2.93;;
16510;SDS011;8368;48.772;8.754;2024-02-21T02:50:36;9.67;;;2.73;;
16510;SDS011;8368;48.772;8.754;2024-02-21T02:53:02;5.53;;;2.40;;
16510;SDS011;8368;48.772;8.754;2024-02-21T02:55:28;9.33;;;2.67;;
16510;SDS011;8368;48.772;8.754;2024-02-21T02:57:53;7.50;;;3.20;;
16510;SDS011;8368;48.772;8.754;2024-02-21T03:00:19;9.30;;;2.90;;
16510;SDS011;8368;48.772;8.754;2024-02-21T03:02:46;5.90;;;2.93;;
16510;SDS011;8368;48.772;8.754;2024-02-21T03:05:15;5.07;;;2.63;;
16510;SDS011;8368;48.772;8.754;2024-02-21T03:07:44;8.30;;;2.77;;
16510;SDS011;8368;48.772;8.754;2024-02-21T03:10:10;9.27;;;3.20;;
16510;SDS011;8368;48.772;8.754;2024-02-21T03:12:36;8.30;;;2.63;;
16510;SDS011;8368;48.772;8.754;2024-02-21T03:15:02;6.50;;;2.80;;
16510;SDS011;8368;48.772;8.754;2024-02-21T03:17:29;6.23;;;2.63;;
16510;SDS011;8368;48.772;8.754;2024-02-21T03:19:55;4.90;;;2.33;;
16510;SDS011;8368;48.772;8.754;2024-02-21T03:22:21;4.90;;;2.50;;
16510;SDS011;8368;48.772;8.754;2024-02-21T03:24:46;7.77;;;3.20;;
16510;SDS011;8368;48.772;8.754;2024-02-21T03:27:12;6.57;;;2.90;;
16510;SDS011;8368;48.772;8.754;2024-02-21T03:29:38;11.90;;;3.00;;
16510;SDS011;8368;48.772;8.754;2024-02-21T03:32:04;8.90;;;3.03;;
16510;SDS011;8368;48.772;8.754;2024-02-21T03:34:29;6.17;;;2.60;;
16510;SDS011;8368;48.772;8.754;2024-02-21T03:36:55;9.43;;;3.33;;
16510;SDS011;8368;48.772;8.754;2024-02-21T03:39:20;5.37;;;2.77;;
16510;SDS011;8368;48.772;8.754;2024-02-21T03:41:46;3.83;;;2.53;;
16510;SDS011;8368;48.772;8.754;2024-02-21T03:44:12;6.13;;;2.67;;
16510;SDS011;8368;48.772;8.754;2024-02-21T03:46:37;4.00;;;2.37;;
16510;SDS011;8368;48.772;8.754;2024-02-21T03:49:03;4.10;;;2.43;;
16510;SDS011;8368;48.772;8.754;2024-02-21T03:51:28;2.67;;;2.20;;
16510;SDS011;8368;48.772;8.754;2024-02-21T03:53:54;7.27;;;2.93;;
16510;SDS011;8368;48.772;8.754;2024-02-21T03:56:19;7.77;;;2.87;;
16510;SDS011;8368;48.772;8.754;2024-02-21T03:58:45;4.87;;;2.70;;
16510;SDS011;8368;48.772;8.754;2024-02-21T04:01:10;6.40;;;3.27;;
16510;SDS011;8368;48.772;8.754;2024-02-21T04:03:37;5.77;;;2.73;;
16510;SDS011;8368;48.772;8.754;2024-02-21T04:06:03;10.80;;;2.90;;
16510;SDS011;8368;48.772;8.754;2024-02-21T04:08:28;6.97;;;3.00;;
16510;SDS011;8368;48.772;8.754;2024-02-21T04:10:54;8.33;;;2.80;;
16510;SDS011;8368;48.772;8.754;2024-02-21T04:13:19;4.07;;;2.90;;
16510;SDS011;8368;48.772;8.754;2024-02-21T04:15:45;6.70;;;2.80;;
16510;SDS011;8368;48.772;8.754;2024-02-21T04:18:10;9.93;;;3.83;;
16510;SDS011;8368;48.772;8.754;2024-02-21T04:20:36;6.10;;;2.90;;
16510;SDS011;8368;48.772;8.754;2024-02-21T04:23:01;6.73;;;3.07;;
16510;SDS011;8368;48.772;8.754;2024-02-21T04:25:27;9.30;;;3.07;;
16510;SDS011;8368;48.772;8.754;2024-02-21T04:27:52;5.63;;;3.10;;
16510;SDS011;8368;48.772;8.754;2024-02-21T04:30:18;6.03;;;2.90;;
16510;SDS011;8368;48.772;8.754;2024-02-21T04:32:44;5.27;;;3.03;;
16510;SDS011;8368;48.772;8.754;2024-02-21T04:35:09;3.67;;;2.73;;
16510;SDS011;8368;48.772;8.754;2024-02-21T04:37:35;5.73;;;2.80;;
16510;SDS011;8368;48.772;8.754;2024-02-21T04:40:00;6.23;;;3.10;;
16510;SDS011;8368;48.772;8.754;2024-02-21T04:42:26;6.33;;;2.63;;
16510;SDS011;8368;48.772;8.754;2024-02-21T04:44:51;2.60;;;2.40;;
16510;SDS011;8368;48.772;8.754;2024-02-21T04:47:17;4.83;;;2.60;;
16510;SDS011;8368;48.772;8.754;2024-02-21T04:49:44;5.13;;;2.40;;
16510;SDS011;8368;48.772;8.754;2024-02-21T04:52:10;3.27;;;2.60;;
16510;SDS011;8368;48.772;8.754;2024-02-21T04:54:36;5.63;;;2.77;;
16510;SDS011;8368;48.772;8.754;2024-02-21T04:57:02;5.97;;;2.73;;
16510;SDS011;8368;48.772;8.754;2024-02-21T04:59:27;13.13;;;3.13;;
16510;SDS011;8368;48.772;8.754;2024-02-21T05:01:53;5.57;;;2.60;;
16510;SDS011;8368;48.772;8.754;2024-02-21T05:04:18;4.97;;;2.70;;
16510;SDS011;8368;48.772;8.754;2024-02-21T05:06:44;7.90;;;3.10;;
16510;SDS011;8368;48.772;8.754;2024-02-21T05:09:09;5.00;;;2.90;;
16510;SDS011;8368;48.772;8.754;2024-02-21T05:11:35;5.57;;;2.93;;
16510;SDS011;8368;48.772;8.754;2024-02-21T05:14:01;3.47;;;2.33;;
16510;SDS011;8368;48.772;8.754;2024-02-21T05:16:28;10.17;;;3.50;;
16510;SDS011;8368;48.772;8.754;2024-02-21T05:18:54;8.10;;;3.60;;
16510;SDS011;8368;48.772;8.754;2024-02-21T05:21:21;7.53;;;4.20;;
16510;SDS011;8368;48.772;8.754;2024-02-21T05:23:48;7.80;;;3.17;;
16510;SDS011;8368;48.772;8.754;2024-02-21T05:26:24;3.63;;;3.00;;
16510;SDS011;8368;48.772;8.754;2024-02-21T05:28:50;12.43;;;3.50;;
16510;SDS011;8368;48.772;8.754;2024-02-21T05:31:17;6.73;;;3.00;;
16510;SDS011;8368;48.772;8.754;2024-02-21T05:33:43;8.63;;;3.47;;
16510;SDS011;8368;48.772;8.754;2024-02-21T05:36:09;3.13;;;2.60;;
16510;SDS011;8368;48.772;8.754;2024-02-21T05:38:35;7.63;;;3.27;;
16510;SDS011;8368;48.772;8.754;2024-02-21T05:41:01;4.77;;;2.73;;
16510;SDS011;8368;48.772;8.754;2024-02-21T05:43:27;6.73;;;3.00;;
16510;SDS011;8368;48.772;8.754;2024-02-21T05:45:52;10.37;;;3.30;;
16510;SDS011;8368;48.772;8.754;2024-02-21T05:48:18;5.40;;;2.87;;
16510;SDS011;8368;48.772;8.754;2024-02-21T05:50:43;7.40;;;3.40;;
16510;SDS011;8368;48.772;8.754;2024-02-21T05:53:09;4.57;;;3.73;;
16510;SDS011;8368;48.772;8.754;2024-02-21T05:55:36;4.73;;;2.80;;
16510;SDS011;8368;48.772;8.754;2024-02-21T05:58:01;13.60;;;3.00;;
16510;SDS011;8368;48.772;8.754;2024-02-21T06:00:27;8.73;;;3.00;;
16510;SDS011;8368;48.772;8.754;2024-02-21T06:02:53;12.30;;;4.20;;
16510;SDS011;8368;48.772;8.754;2024-02-21T06:05:18;7.87;;;3.50;;
16510;SDS011;8368;48.772;8.754;2024-02-21T06:07:44;8.53;;;2.80;;
16510;SDS011;8368;48.772;8.754;2024-02-21T06:10:09;8.70;;;2.93;;
16510;SDS011;8368;48.772;8.754;2024-02-21T06:12:35;12.13;;;3.37;;
16510;SDS011;8368;48.772;8.754;2024-02-21T06:15:00;7.87;;;3.57;;
16510;SDS011;8368;48.772;8.754;2024-02-21T06:17:26;8.00;;;3.30;;
16510;SDS011;8368;48.772;8.754;2024-02-21T06:19:51;16.10;;;3.13;;
16510;SDS011;8368;48.772;8.754;2024-02-21T06:22:17;9.60;;;3.33;;
16510;SDS011;8368;48.772;8.754;2024-02-21T06:24:43;7.63;;;3.40;;
16510;SDS011;8368;48.772;8.754;2024-02-21T06:27:08;7.10;;;2.87;;
16510;SDS011;8368;48.772;8.754;2024-02-21T06:29:35;4.97;;;2.90;;
16510;SDS011;8368;48.772;8.754;2024-02-21T06:32:01;4.70;;;2.67;;
16510;SDS011;8368;48.772;8.754;2024-02-21T06:34:27;5.77;;;2.57;;
16510;SDS011;8368;48.772;8.754;2024-02-21T06:36:52;8.73;;;3.17;;
16510;SDS011;8368;48.772;8.754;2024-02-21T06:39:18;5.57;;;2.93;;
16510;SDS011;8368;48.772;8.754;2024-02-21T06:41:43;5.57;;;2.77;;
16510;SDS011;8368;48.772;8.754;2024-02-21T06:44:09;3.10;;;2.67;;
16510;SDS011;8368;48.772;8.754;2024-02-21T06:46:35;9.10;;;3.20;;
16510;SDS011;8368;48.772;8.754;2024-02-21T06:49:01;6.10;;;3.07;;
16510;SDS011;8368;48.772;8.754;2024-02-21T06:51:28;5.60;;;2.93;;
16510;SDS011;8368;48.772;8.754;2024-02-21T06:53:54;4.57;;;2.77;;
16510;SDS011;8368;48.772;8.754;2024-02-21T06:56:20;6.47;;;2.80;;
16510;SDS011;8368;48.772;8.754;2024-02-21T06:58:51;5.73;;;2.80;;
16510;SDS011;8368;48.772;8.754;2024-02-21T07:01:17;8.77;;;3.30;;
16510;SDS011;8368;48.772;8.754;2024-02-21T07:03:42;5.50;;;3.33;;
16510;SDS011;8368;48.772;8.754;2024-02-21T07:06:08;8.63;;;2.73;;
16510;SDS011;8368;48.772;8.754;2024-02-21T07:08:33;6.73;;;3.00;;
16510;SDS011;8368;48.772;8.754;2024-02-21T07:10:59;6.77;;;3.00;;
16510;SDS011;8368;48.772;8.754;2024-02-21T07:13:24;6.97;;;3.30;;
16510;SDS011;8368;48.772;8.754;2024-02-21T07:15:50;4.10;;;3.13;;
16510;SDS011;8368;48.772;8.754;2024-02-21T07:18:16;4.23;;;3.07;;
16510;SDS011;8368;48.772;8.754;2024-02-21T07:20:41;7.53;;;4.27;;
16510;SDS011;8368;48.772;8.754;2024-02-21T07:23:07;7.73;;;3.50;;
16510;SDS011;8368;48.772;8.754;2024-02-21T07:25:33;7.43;;;3.03;;
16510;SDS011;8368;48.772;8.754;2024-02-21T07:27:59;8.00;;;2.70;;
16510;SDS011;8368;48.772;8.754;2024-02-21T07:30:24;7.67;;;2.80;;
16510;SDS011;8368;48.772;8.754;2024-02-21T07:32:50;6.37;;;2.47;;
16510;SDS011;8368;48.772;8.754;2024-02-21T07:35:17;3.23;;;2.47;;
16510;SDS011;8368;48.772;8.754;2024-02-21T07:37:43;6.67;;;2.80;;
16510;SDS011;8368;48.772;8.754;2024-02-21T07:40:15;5.30;;;2.67;;
16510;SDS011;8368;48.772;8.754;2024-02-21T07:42:42;8.23;;;3.23;;
16510;SDS011;8368;48.772;8.754;2024-02-21T07:45:08;6.43;;;2.67;;
16510;SDS011;8368;48.772;8.754;2024-02-21T07:47:34;5.97;;;2.63;;
16510;SDS011;8368;48.772;8.754;2024-02-21T07:49:59;6.40;;;2.63;;
16510;SDS011;8368;48.772;8.754;2024-02-21T07:52:25;7.17;;;3.07;;
16510;SDS011;8368;48.772;8.754;2024-02-21T07:54:51;2.50;;;2.30;;
16510;SDS011;8368;48.772;8.754;2024-02-21T07:57:16;4.70;;;3.23;;
16510;SDS011;8368;48.772;8.754;2024-02-21T07:59:42;6.10;;;2.70;;
16510;SDS011;8368;48.772;8.754;2024-02-21T08:02:08;7.70;;;2.77;;
16510;SDS011;8368;48.772;8.754;2024-02-21T08:04:33;4.73;;;3.00;;
16510;SDS011;8368;48.772;8.754;2024-02-21T08:06:59;3.10;;;2.70;;
16510;SDS011;8368;48.772;8.754;2024-02-21T08:09:27;3.93;;;2.83;;
16510;SDS011;8368;48.772;8.754;2024-02-21T08:11:53;10.17;;;2.80;;
16510;SDS011;8368;48.772;8.754;2024-02-21T08:14:19;5.93;;;2.70;;
16510;SDS011;8368;48.772;8.754;2024-02-21T08:16:45;3.47;;;2.63;;
16510;SDS011;8368;48.772;8.754;2024-02-21T08:19:11;7.40;;;2.73;;
16510;SDS011;8368;48.772;8.754;2024-02-21T08:21:36;3.53;;;2.30;;
16510;SDS011;8368;48.772;8.754;2024-02-21T08:24:02;2.40;;;2.20;;
16510;SDS011;8368;48.772;8.754;2024-02-21T08:26:28;4.57;;;2.70;;
16510;SDS011;8368;48.772;8.754;2024-02-21T08:28:55;3.63;;;2.40;;
16510;SDS011;8368;48.772;8.754;2024-02-21T08:31:23;5.47;;;2.73;;
16510;SDS011;8368;48.772;8.754;2024-02-21T08:33:53;5.63;;;2.40;;
16510;SDS011;8368;48.772;8.754;2024-02-21T08:36:19;3.13;;;2.33;;
16510;SDS011;8368;48.772;8.754;2024-02-21T08:38:44;3.77;;;2.20;;
16510;SDS011;8368;48.772;8.754;2024-02-21T08:41:10;4.23;;;2.33;;
16510;SDS011;8368;48.772;8.754;2024-02-21T08:43:37;5.50;;;2.30;;
16510;SDS011;8368;48.772;8.754;2024-02-21T08:46:02;4.67;;;2.00;;
16510;SDS011;8368;48.772;8.754;2024-02-21T08:48:29;3.93;;;2.13;;
16510;SDS011;8368;48.772;8.754;2024-02-21T08:50:54;5.57;;;1.90;;
16510;SDS011;8368;48.772;8.754;2024-02-21T08:53:20;3.13;;;2.07;;
16510;SDS011;8368;48.772;8.754;2024-02-21T08:55:45;2.83;;;1.63;;
16510;SDS011;8368;48.772;8.754;2024-02-21T08:58:11;2.77;;;1.70;;
16510;SDS011;8368;48.772;8.754;2024-02-21T09:00:37;3.33;;;1.70;;
16510;SDS011;8368;48.772;8.754;2024-02-21T09:03:02;3.77;;;2.07;;
16510;SDS011;8368;48.772;8.754;2024-02-21T09:05:28;6.53;;;2.30;;
16510;SDS011;8368;48.772;8.754;2024-02-21T09:07:54;7.23;;;1.93;;
16510;SDS011;8368;48.772;8.754;2024-02-21T09:10:20;4.43;;;2.70;;
16510;SDS011;8368;48.772;8.754;2024-02-21T09:12:46;4.73;;;1.90;;
16510;SDS011;8368;48.772;8.754;2024-02-21T09:15:12;4.80;;;1.80;;
16510;SDS011;8368;48.772;8.754;2024-02-21T09:17:38;2.03;;;1.90;;
16510;SDS011;8368;48.772;8.754;2024-02-21T09:20:04;5.10;;;2.20;;
16510;SDS011;8368;48.772;8.754;2024-02-21T09:22:31;9.97;;;2.30;;
16510;SDS011;8368;48.772;8.754;2024-02-21T09:24:59;6.00;;;2.07;;
16510;SDS011;8368;48.772;8.754;2024-02-21T09:27:25;4.47;;;2.80;;
16510;SDS011;8368;48.772;8.754;2024-02-21T09:29:50;2.40;;;1.87;;
16510;SDS011;8368;48.772;8.754;2024-02-21T09:32:16;5.43;;;2.07;;
16510;SDS011;8368;48.772;8.754;2024-02-21T09:34:44;5.60;;;2.53;;
16510;SDS011;8368;48.772;8.754;2024-02-21T09:37:10;5.93;;;2.47;;
16510;SDS011;8368;48.772;8.754;2024-02-21T09:39:35;5.30;;;2.47;;
16510;SDS011;8368;48.772;8.754;2024-02-21T09:42:03;8.03;;;2.50;;
16510;SDS011;8368;48.772;8.754;2024-02-21T09:44:33;3.97;;;1.77;;
16510;SDS011;8368;48.772;8.754;2024-02-21T09:47:03;7.93;;;2.70;;
16510;SDS011;8368;48.772;8.754;2024-02-21T09:49:32;4.90;;;2.20;;
16510;SDS011;8368;48.772;8.754;2024-02-21T09:52:01;2.70;;;1.90;;
16510;SDS011;8368;48.772;8.754;2024-02-21T09:54:29;3.50;;;2.23;;
16510;SDS011;8368;48.772;8.754;2024-02-21T09:56:57;3.33;;;2.10;;
16510;SDS011;8368;48.772;8.754;2024-02-21T09:59:24;7.37;;;2.07;;
16510;SDS011;8368;48.772;8.754;2024-02-21T10:01:52;10.50;;;2.10;;
16510;SDS011;8368;48.772;8.754;2024-02-21T10:04:18;2.83;;;1.63;;
16510;SDS011;8368;48.772;8.754;2024-02-21T10:06:45;3.03;;;1.70;;
16510;SDS011;8368;48.772;8.754;2024-02-21T10:09:20;2.67;;;1.80;;
16510;SDS011;8368;48.772;8.754;2024-02-21T10:12:15;5.77;;;2.43;;
16510;SDS011;8368;48.772;8.754;2024-02-21T10:14:43;3.73;;;1.83;;
16510;SDS011;8368;48.772;8.754;2024-02-21T10:17:14;2.20;;;1.83;;
16510;SDS011;8368;48.772;8.754;2024-02-21T10:19:43;4.13;;;2.00;;
16510;SDS011;8368;48.772;8.754;2024-02-21T10:22:08;4.00;;;2.00;;
16510;SDS011;8368;48.772;8.754;2024-02-21T10:24:34;3.17;;;1.53;;
16510;SDS011;8368;48.772;8.754;2024-02-21T10:27:03;3.43;;;1.93;;
16510;SDS011;8368;48.772;8.754;2024-02-21T10:29:30;6.50;;;2.20;;
16510;SDS011;8368;48.772;8.754;2024-02-21T10:32:09;5.53;;;2.13;;
16510;SDS011;8368;48.772;8.754;2024-02-21T10:34:36;5.63;;;2.27;;
16510;SDS011;8368;48.772;8.754;2024-02-21T10:37:04;4.23;;;2.10;;
16510;SDS011;8368;48.772;8.754;2024-02-21T10:39:34;4.73;;;2.57;;
16510;SDS011;8368;48.772;8.754;2024-02-21T10:42:01;3.53;;;1.77;;
16510;SDS011;8368;48.772;8.754;2024-02-21T10:44:31;6.70;;;1.63;;
16510;SDS011;8368;48.772;8.754;2024-02-21T10:46:59;1.73;;;1.63;;
16510;SDS011;8368;48.772;8.754;2024-02-21T10:49:25;3.53;;;1.63;;
16510;SDS011;8368;48.772;8.754;2024-02-21T10:51:55;6.47;;;1.80;;
16510;SDS011;8368;48.772;8.754;2024-02-21T10:54:48;3.27;;;1.93;;
16510;SDS011;8368;48.772;8.754;2024-02-21T10:57:21;2.23;;;1.37;;
16510;SDS011;8368;48.772;8.754;2024-02-21T10:59:48;5.57;;;1.97;;
16510;SDS011;8368;48.772;8.754;2024-02-21T11:02:14;2.93;;;1.63;;
16510;SDS011;8368;48.772;8.754;2024-02-21T11:04:40;6.10;;;1.87;;
16510;SDS011;8368;48.772;8.754;2024-02-21T11:07:06;4.07;;;2.03;;
16510;SDS011;8368;48.772;8.754;2024-02-21T11:09:33;5.57;;;2.20;;
16510;SDS011;8368;48.772;8.754;2024-02-21T11:12:02;3.53;;;1.83;;
16510;SDS011;8368;48.772;8.754;2024-02-21T11:14:29;3.80;;;1.80;;
16510;SDS011;8368;48.772;8.754;2024-02-21T11:16:58;2.10;;;1.90;;
16510;SDS011;8368;48.772;8.754;2024-02-21T11:19:28;2.93;;;1.80;;
16510;SDS011;8368;48.772;8.754;2024-02-21T11:21:54;2.67;;;1.73;;
16510;SDS011;8368;48.772;8.754;2024-02-21T11:24:25;3.80;;;2.00;;
16510;SDS011;8368;48.772;8.754;2024-02-21T11:26:53;4.63;;;2.00;;
16510;SDS011;8368;48.772;8.754;2024-02-21T11:29:25;3.23;;;1.50;;
16510;SDS011;8368;48.772;8.754;2024-02-21T11:31:51;4.23;;;1.93;;
16510;SDS011;8368;48.772;8.754;2024-02-21T11:34:17;5.47;;;1.60;;
16510;SDS011;8368;48.772;8.754;2024-02-21T11:36:51;3.30;;;1.83;;
16510;SDS011;8368;48.772;8.754;2024-02-21T11:39:18;3.70;;;1.60;;
16510;SDS011;8368;48.772;8.754;2024-02-21T11:41:45;4.30;;;1.67;;
16510;SDS011;8368;48.772;8.754;2024-02-21T11:44:11;3.60;;;1.80;;
16510;SDS011;8368;48.772;8.754;2024-02-21T11:46:37;8.93;;;2.00;;
16510;SDS011;8368;48.772;8.754;2024-02-21T11:49:03;2.90;;;1.87;;
16510;SDS011;8368;48.772;8.754;2024-02-21T11:51:28;4.33;;;1.60;;
16510;SDS011;8368;48.772;8.754;2024-02-21T11:53:54;5.27;;;2.13;;
16510;SDS011;8368;48.772;8.754;2024-02-21T11:56:20;1.20;;;1.10;;
16510;SDS011;8368;48.772;8.754;2024-02-21T11:58:48;1.67;;;1.40;;
16510;SDS011;8368;48.772;8.754;2024-02-21T12:01:15;2.53;;;2.20;;
16510;SDS011;8368;48.772;8.754;2024-02-21T12:03:41;2.37;;;1.53;;
16510;SDS011;8368;48.772;8.754;2024-02-21T12:06:11;3.00;;;1.43;;
16510;SDS011;8368;48.772;8.754;2024-02-21T12:08:42;2.20;;;1.20;;
16510;SDS011;8368;48.772;8.754;2024-02-21T12:11:18;2.13;;;1.30;;
16510;SDS011;8368;48.772;8.754;2024-02-21T12:13:46;2.55;;;1.30;;
16510;SDS011;8368;48.772;8.754;2024-02-21T12:16:12;2.67;;;1.60;;
16510;SDS011;8368;48.772;8.754;2024-02-21T12:18:41;1.77;;;1.60;;
16510;SDS011;8368;48.772;8.754;2024-02-21T12:21:07;1.80;;;1.37;;
16510;SDS011;8368;48.772;8.754;2024-02-21T12:23:33;1.40;;;1.30;;
16510;SDS011;8368;48.772;8.754;2024-02-21T12:25:59;1.80;;;1.13;;
16510;SDS011;8368;48.772;8.754;2024-02-21T12:28:24;4.40;;;1.40;;
16510;SDS011;8368;48.772;8.754;2024-02-21T12:30:51;5.95;;;1.33;;
16510;SDS011;8368;48.772;8.754;2024-02-21T12:33:17;3.67;;;1.43;;
16510;SDS011;8368;48.772;8.754;2024-02-21T12:35:43;0.80;;;0.80;;
16510;SDS011;8368;48.772;8.754;2024-02-21T12:38:08;2.28;;;1.08;;
16510;SDS011;8368;48.772;8.754;2024-02-21T12:40:34;2.17;;;0.95;;
16510;SDS011;8368;48.772;8.754;2024-02-21T12:43:00;1.25;;;1.00;;
16510;SDS011;8368;48.772;8.754;2024-02-21T12:45:28;5.63;;;1.23;;
16510;SDS011;8368;48.772;8.754;2024-02-21T12:47:53;1.27;;;1.13;;
16510;SDS011;8368;48.772;8.754;2024-02-21T12:50:19;1.52;;;1.42;;
16510;SDS011;8368;48.772;8.754;2024-02-21T12:52:45;0.75;;;0.75;;
16510;SDS011;8368;48.772;8.754;2024-02-21T12:55:11;1.80;;;0.93;;
16510;SDS011;8368;48.772;8.754;2024-02-21T12:57:38;1.13;;;0.87;;
16510;SDS011;8368;48.772;8.754;2024-02-21T13:00:04;0.60;;;0.60;;
16510;SDS011;8368;48.772;8.754;2024-02-21T13:02:33;0.70;;;0.70;;
16510;SDS011;8368;48.772;8.754;2024-02-21T13:04:59;1.00;;;0.87;;
16510;SDS011;8368;48.772;8.754;2024-02-21T13:07:25;0.70;;;0.70;;
16510;SDS011;8368;48.772;8.754;2024-02-21T13:09:51;1.90;;;0.80;;
16510;SDS011;8368;48.772;8.754;2024-02-21T13:12:17;0.93;;;0.70;;
16510;SDS011;8368;48.772;8.754;2024-02-21T13:14:42;1.13;;;0.60;;
16510;SDS011;8368;48.772;8.754;2024-02-21T13:17:09;0.90;;;0.67;;
16510;SDS011;8368;48.772;8.754;2024-02-21T13:19:34;0.60;;;0.60;;
16510;SDS011;8368;48.772;8.754;2024-02-21T13:22:00;0.40;;;0.40;;
16510;SDS011;8368;48.772;8.754;2024-02-21T13:24:27;0.87;;;0.70;;
16510;SDS011;8368;48.772;8.754;2024-02-21T13:26:52;0.63;;;0.63;;
16510;SDS011;8368;48.772;8.754;2024-02-21T13:29:18;1.03;;;0.50;;
16510;SDS011;8368;48.772;8.754;2024-02-21T13:31:44;0.60;;;0.60;;
16510;SDS011;8368;48.772;8.754;2024-02-21T13:34:10;0.60;;;0.60;;
16510;SDS011;8368;48.772;8.754;2024-02-21T13:36:35;1.13;;;0.70;;
16510;SDS011;8368;48.772;8.754;2024-02-21T13:39:01;0.50;;;0.40;;
16510;SDS011;8368;48.772;8.754;2024-02-21T13:41:26;0.57;;;0.57;;
16510;SDS011;8368;48.772;8.754;2024-02-21T13:43:52;0.60;;;0.40;;
16510;SDS011;8368;48.772;8.754;2024-02-21T13:46:18;0.67;;;0.67;;
16510;SDS011;8368;48.772;8.754;2024-02-21T13:48:44;0.50;;;0.50;;
16510;SDS011;8368;48.772;8.754;2024-02-21T13:51:10;1.17;;;0.63;;
16510;SDS011;8368;48.772;8.754;2024-02-21T13:53:36;2.87;;;1.60;;
16510;SDS011;8368;48.772;8.754;2024-02-21T13:56:02;1.57;;;0.97;;
16510;SDS011;8368;48.772;8.754;2024-02-21T13:58:27;0.77;;;0.73;;
16510;SDS011;8368;48.772;8.754;2024-02-21T14:00:53;0.60;;;0.50;;
16510;SDS011;8368;48.772;8.754;2024-02-21T14:03:18;0.87;;;0.63;;
16510;SDS011;8368;48.772;8.754;2024-02-21T14:05:45;0.60;;;0.60;;
16510;SDS011;8368;48.772;8.754;2024-02-21T14:08:13;0.97;;;0.70;;
16510;SDS011;8368;48.772;8.754;2024-02-21T14:10:39;0.77;;;0.77;;
16510;SDS011;8368;48.772;8.754;2024-02-21T14:13:05;1.57;;;0.50;;
16510;SDS011;8368;48.772;8.754;2024-02-21T14:15:30;0.63;;;0.50;;
16510;SDS011;8368;48.772;8.754;2024-02-21T14:17:56;0.70;;;0.70;;
16510;SDS011;8368;48.772;8.754;2024-02-21T14:20:22;1.47;;;0.57;;
16510;SDS011;8368;48.772;8.754;2024-02-21T14:22:47;0.70;;;0.70;;
16510;SDS011;8368;48.772;8.754;2024-02-21T14:25:12;0.63;;;0.60;;
16510;SDS011;8368;48.772;8.754;2024-02-21T14:27:40;0.53;;;0.53;;
16510;SDS011;8368;48.772;8.754;2024-02-21T14:30:06;2.07;;;0.70;;
16510;SDS011;8368;48.772;8.754;2024-02-21T14:32:35;0.80;;;0.80;;
16510;SDS011;8368;48.772;8.754;2024-02-21T14:35:01;0.70;;;0.70;;
16510;SDS011;8368;48.772;8.754;2024-02-21T14:37:27;1.73;;;1.30;;
16510;SDS011;8368;48.772;8.754;2024-02-21T14:39:53;2.10;;;1.27;;
16510;SDS011;8368;48.772;8.754;2024-02-21T14:42:18;1.00;;;1.00;;
16510;SDS011;8368;48.772;8.754;2024-02-21T14:44:44;0.80;;;0.80;;
16510;SDS011;8368;48.772;8.754;2024-02-21T14:47:09;0.60;;;0.60;;
16510;SDS011;8368;48.772;8.754;2024-02-21T14:49:35;0.60;;;0.60;;
16510;SDS011;8368;48.772;8.754;2024-02-21T14:52:00;1.15;;;0.60;;
16510;SDS011;8368;48.772;8.754;2024-02-21T14:54:26;1.13;;;0.80;;